This is the latest recevied weather packets stored in our database for station/object BMCB-34. If no packets are shown the sender has not sent any weather packets the latest 10 day(s).
| Time | Temp. | Humidity | Pressure | Rain* | Wind** | Luminosity | Snow |
|---|---|---|---|---|---|---|---|
| 1777570242 | 17.78° C | 25% | 1017.6 hPa | 0 mm | - | 212 W/m² | - |
| 1777569039 | 17.78° C | 24% | 1017.5 hPa | 0 mm | - | 264 W/m² | - |
| 1777567839 | 18.33° C | 23% | 1017.5 hPa | 0 mm | - | 290 W/m² | - |
| 1777567832 | 18.33° C | 23% | 1017.5 hPa | 0 mm | - | 316 W/m² | - |
| 1777567232 | 18.89° C | 23% | 1017.5 hPa | 0 mm | - | 342 W/m² | - |
| 1777563623 | 18.89° C | 24% | 1017.4 hPa | 0 mm | - | 468 W/m² | - |
| 1777563022 | 18.89° C | 24% | 1017.5 hPa | 0 mm | - | 510 W/m² | - |
| 1777562423 | 18.89° C | 24% | 1017.5 hPa | 0 mm | - | 510 W/m² | - |
| 1777561816 | 18.89° C | 26% | 1017.6 hPa | 0 mm | - | 552 W/m² | - |
| 1777560617 | 18.33° C | 25% | 1017.7 hPa | 0 mm | - | 588 W/m² | - |
| 1777557625 | 18.33° C | 27% | 1018 hPa | 0 mm | - | 650 W/m² | - |
| 1777555216 | 18.33° C | 28% | 1018.2 hPa | 0 mm | - | 702 W/m² | - |
| 1777554023 | 17.78° C | 28% | 1018.3 hPa | 0 mm | - | 714 W/m² | - |
| 1777553423 | 17.78° C | 28% | 1018.3 hPa | 0 mm | - | 714 W/m² | - |
| 1777549223 | 16.11° C | 32% | 1019.2 hPa | 0 mm | - | 702 W/m² | - |
| 1777548023 | 16.11° C | 32% | 1019.4 hPa | 0 mm | - | 690 W/m² | - |
| 1777546226 | 15.56° C | 32% | 1019.7 hPa | 0 mm | - | 662 W/m² | - |
| 1777545623 | 15° C | 33% | 1019.7 hPa | 0 mm | - | 650 W/m² | - |
| 1777543822 | 15° C | 34% | 1019.8 hPa | 0 mm | - | 622 W/m² | - |
| 1777543227 | 14.44° C | 34% | 1019.8 hPa | 0 mm | - | 604 W/m² | - |
| 1777537823 | 12.22° C | 40% | 1020.1 hPa | 0 mm | - | 428 W/m² | - |
| 1777533054 | 10° C | 42% | 1020.3 hPa | 0 mm | - | 214 W/m² | - |
| 1777531825 | 9.44° C | 43% | 1020.2 hPa | 0 mm | - | 192 W/m² | - |
| 1777531235 | 9.44° C | 43% | 1020.1 hPa | 0 mm | - | 146 W/m² | - |
| 1777527037 | 7.78° C | 46% | 1020 hPa | 0 mm | - | 20 W/m² | - |
* Rain latest hour (hover to see other rain measurements)
** Current wind speed in m/s (hover to see current wind gust speed)